Preview of NWS' New Version of Forecast
This preview is not operational and should not be used for support decisions.

Terminal Aerodrome Forecast (TAF)

Issued by National Weather Service (NWS)

                            
422 
FTUS42 KKEY 220859 AAB
TAFMTH
TAF AMD
KMTH 220859Z 2209/2306 09012G19KT P6SM VCSH SCT020 BKN050
     FM221300 10012G20KT P6SM VCSH SCT020 SCT050
     FM222200 10011G19KT P6SM SCT025=